Time;durP1;ratioP1;P1;durP2;ratioP2;P2;SDS_P1;SDS_P2;PMS_P1;PMS_P2;Temp;Humidity;BMP_temperature;BMP_pressure;BME280_temperature;BME280_humidity;BME280_pressure;Samples;Min_cycle;Max_cycle;Signal;HPM_P1;HPM_P2
2023/06/24 00:02:53;;;;;;;3.28;2.22;;;25.00;81.00;;;;;;10824595;33;20047;-73
2023/06/24 00:09:00;;;;;;;4.75;1.85;;;24.80;81.00;;;;;;10824501;33;20043;-73
2023/06/24 00:15:02;;;;;;;5.40;2.45;;;24.70;81.10;;;;;;10820463;33;20028;-73
2023/06/24 00:21:05;;;;;;;3.70;1.90;;;24.80;81.00;;;;;;10824132;33;20020;-73
2023/06/24 00:27:07;;;;;;;2.35;1.60;;;24.80;81.00;;;;;;10825727;32;20028;-73
2023/06/24 00:33:11;;;;;;;4.93;2.47;;;24.60;81.10;;;;;;10829905;33;20020;-73
2023/06/24 00:39:13;;;;;;;11.43;2.65;;;24.70;81.00;;;;;;10817916;32;20070;-73
2023/06/24 00:45:17;;;;;;;7.47;3.35;;;24.70;81.50;;;;;;10830193;33;20038;-73
2023/06/24 00:51:26;;;;;;;3.70;2.10;;;24.70;81.20;;;;;;10816849;33;20425;-73
2023/06/24 00:57:28;;;;;;;3.55;2.47;;;24.60;81.10;;;;;;10829813;33;20024;-73
2023/06/24 01:03:32;;;;;;;4.62;2.60;;;24.40;81.20;;;;;;10826509;33;20024;-73
2023/06/24 01:09:34;;;;;;;4.70;2.80;;;24.30;81.40;;;;;;10826090;33;20035;-73
2023/06/24 01:15:38;;;;;;;8.65;3.50;;;24.30;81.20;;;;;;10812850;33;20045;-73
2023/06/24 01:22:11;;;;;;;3.90;2.42;;;24.40;80.80;;;;;;10825540;33;20334;-73
2023/06/24 01:28:40;;;;;;;4.93;2.85;;;24.30;80.90;;;;;;10829023;33;20351;-73
2023/06/24 01:34:57;;;;;;;5.93;3.53;;;24.20;81.20;;;;;;10828067;33;20046;-73
2023/06/24 01:41:02;;;;;;;5.70;3.37;;;24.00;81.30;;;;;;10827202;32;20067;-73
2023/06/24 01:47:07;;;;;;;4.30;2.50;;;24.00;81.50;;;;;;10828368;33;20020;-73
2023/06/24 01:53:13;;;;;;;3.90;2.60;;;24.00;81.50;;;;;;10815125;33;20342;-73
2023/06/24 01:59:19;;;;;;;6.37;3.87;;;23.80;81.60;;;;;;10826225;33;20342;-73
2023/06/24 02:05:24;;;;;;;6.72;4.68;;;23.80;81.60;;;;;;10827980;33;20322;-73
2023/06/24 02:11:30;;;;;;;6.95;3.95;;;23.80;81.70;;;;;;10827632;33;20055;-73
2023/06/24 02:17:32;;;;;;;5.15;3.53;;;23.80;81.70;;;;;;10827428;33;20032;-73
2023/06/24 02:23:37;;;;;;;4.12;2.75;;;23.80;81.40;;;;;;10827345;33;20054;-73
2023/06/24 02:29:40;;;;;;;7.12;4.37;;;23.70;81.60;;;;;;10827063;33;20023;-73
2023/06/24 02:35:45;;;;;;;4.82;3.83;;;23.80;81.60;;;;;;10813601;33;20074;-73
2023/06/24 02:41:49;;;;;;;5.97;3.78;;;23.80;81.20;;;;;;10826816;33;20050;-73
2023/06/24 02:47:52;;;;;;;8.65;4.55;;;23.80;81.20;;;;;;10826517;32;20024;-73
2023/06/24 02:53:55;;;;;;;8.07;4.72;;;23.80;81.10;;;;;;10826108;33;20032;-73
2023/06/24 02:59:59;;;;;;;6.32;4.07;;;23.80;80.90;;;;;;10812151;33;20055;-72
2023/06/24 03:06:02;;;;;;;7.70;4.18;;;23.70;81.10;;;;;;10826118;33;20024;-73
2023/06/24 03:12:06;;;;;;;12.18;4.72;;;23.70;81.10;;;;;;10813320;32;20054;-72
2023/06/24 03:18:10;;;;;;;6.20;4.10;;;23.60;81.20;;;;;;10825722;33;20059;-73
2023/06/24 03:24:12;;;;;;;7.28;5.12;;;23.60;81.30;;;;;;10813148;32;20024;-73
2023/06/24 03:30:14;;;;;;;6.45;3.90;;;23.60;81.60;;;;;;10825290;33;20028;-73
2023/06/24 03:36:18;;;;;;;8.70;4.80;;;23.60;81.50;;;;;;10811634;33;20040;-73
2023/06/24 03:42:21;;;;;;;7.40;4.53;;;23.40;81.50;;;;;;10822798;33;20063;-73
2023/06/24 03:48:23;;;;;;;7.43;5.15;;;23.30;81.80;;;;;;10824948;33;20390;-73
2023/06/24 03:54:26;;;;;;;6.95;4.45;;;23.40;81.50;;;;;;10822269;33;20070;-73
2023/06/24 04:00:30;;;;;;;8.57;5.62;;;23.50;81.40;;;;;;10822571;33;20050;-73
2023/06/24 04:06:32;;;;;;;5.72;4.40;;;23.40;81.40;;;;;;10821317;33;20067;-73
2023/06/24 04:12:37;;;;;;;5.50;4.45;;;23.30;81.60;;;;;;10824417;33;20016;-73
2023/06/24 04:18:39;;;;;;;7.32;4.22;;;23.30;81.60;;;;;;10823347;33;20070;-73
2023/06/24 04:24:42;;;;;;;9.27;5.55;;;23.20;81.70;;;;;;10811103;33;20008;-73
2023/06/24 04:30:44;;;;;;;6.78;3.55;;;23.00;81.70;;;;;;10821194;33;20020;-73
2023/06/24 04:36:46;;;;;;;10.55;4.85;;;23.10;82.00;;;;;;10823744;33;20020;-72
2023/06/24 04:42:48;;;;;;;8.93;5.22;;;23.30;82.00;;;;;;10820637;33;20024;-73
2023/06/24 04:48:50;;;;;;;8.68;4.57;;;23.40;81.90;;;;;;10821695;33;20028;-73
2023/06/24 04:54:52;;;;;;;6.45;5.07;;;23.50;82.00;;;;;;10808274;33;20028;-73
2023/06/24 05:00:54;;;;;;;7.28;4.75;;;23.70;81.80;;;;;;10823109;33;20063;-73
2023/06/24 05:06:56;;;;;;;11.90;6.85;;;23.80;81.70;;;;;;10823143;33;20023;-73
2023/06/24 05:12:58;;;;;;;6.32;4.87;;;23.80;81.80;;;;;;10811662;32;20017;-73
2023/06/24 05:19:00;;;;;;;6.87;3.92;;;23.90;81.80;;;;;;10829186;33;20132;-73
2023/06/24 05:25:02;;;;;;;7.90;4.35;;;24.00;81.90;;;;;;10826028;33;20016;-74
2023/06/24 05:31:05;;;;;;;6.90;3.42;;;24.00;82.10;;;;;;10811919;33;20050;-72
2023/06/24 05:37:07;;;;;;;9.32;3.90;;;24.20;82.20;;;;;;10812297;33;20165;-73
2023/06/24 05:43:10;;;;;;;7.93;4.10;;;24.40;82.30;;;;;;10828580;33;20058;-73
2023/06/24 05:49:13;;;;;;;4.72;2.90;;;24.50;82.10;;;;;;10828328;33;20386;-74
2023/06/24 05:55:16;;;;;;;6.10;3.72;;;24.60;82.30;;;;;;10826998;33;20027;-73
2023/06/24 06:01:18;;;;;;;6.03;3.15;;;24.80;82.40;;;;;;10827948;33;20024;-73
2023/06/24 06:07:20;;;;;;;4.97;2.08;;;24.90;82.10;;;;;;10826350;33;20020;-73
2023/06/24 06:13:22;;;;;;;4.12;2.78;;;25.00;82.10;;;;;;10827263;33;20295;-73
2023/06/24 06:19:24;;;;;;;3.58;2.28;;;24.90;81.90;;;;;;10827238;33;20046;-73
2023/06/24 06:25:26;;;;;;;4.18;2.03;;;24.90;82.00;;;;;;10817590;32;20047;-73
2023/06/24 06:31:28;;;;;;;3.80;2.60;;;24.90;82.40;;;;;;10775797;33;20028;-73
2023/06/24 06:37:30;;;;;;;4.40;3.03;;;25.10;82.30;;;;;;10789528;33;20016;-73
2023/06/24 06:43:33;;;;;;;2.78;1.95;;;25.20;82.00;;;;;;10788861;33;20016;-73
2023/06/24 06:49:35;;;;;;;3.22;1.90;;;25.30;82.10;;;;;;10787265;33;20437;-73
2023/06/24 06:55:39;;;;;;;4.68;2.78;;;25.20;82.40;;;;;;10787937;33;20348;-73
2023/06/24 07:01:42;;;;;;;4.20;2.47;;;25.20;82.00;;;;;;10789208;33;20024;-74
2023/06/24 07:07:45;;;;;;;2.90;2.00;;;25.20;82.00;;;;;;10789100;33;20398;-73
2023/06/24 07:13:50;;;;;;;5.10;3.03;;;25.30;82.20;;;;;;10787117;33;20024;-73
2023/06/24 07:19:58;;;;;;;5.30;2.00;;;25.40;81.80;;;;;;10788041;33;20055;-73
2023/06/24 07:26:01;;;;;;;5.43;2.60;;;25.70;81.40;;;;;;10793697;27;20083;-73
2023/06/24 07:32:07;;;;;;;3.28;1.67;;;25.80;80.80;;;;;;10810825;32;20027;-73
2023/06/24 07:38:09;;;;;;;4.00;2.15;;;26.10;80.00;;;;;;10820911;33;20067;-73
2023/06/24 07:44:11;;;;;;;2.85;1.52;;;26.20;79.40;;;;;;10821971;33;20021;-73
2023/06/24 07:50:14;;;;;;;2.00;1.42;;;26.30;78.70;;;;;;10820926;33;20050;-73
2023/06/24 07:56:15;;;;;;;3.65;2.15;;;26.20;79.00;;;;;;10821174;33;20350;-73
2023/06/24 08:02:17;;;;;;;5.75;2.28;;;26.10;78.80;;;;;;10821360;33;20058;-73
2023/06/24 08:08:20;;;;;;;5.53;2.53;;;26.10;78.60;;;;;;10823900;33;20219;-73
2023/06/24 08:14:22;;;;;;;2.47;1.37;;;26.30;77.80;;;;;;10818734;32;20063;-73
2023/06/24 08:20:24;;;;;;;5.03;2.55;;;26.50;77.20;;;;;;10824133;33;20287;-73
2023/06/24 08:26:26;;;;;;;3.53;2.15;;;26.70;75.10;;;;;;10811721;32;20032;-73
2023/06/24 08:32:28;;;;;;;2.60;1.35;;;26.80;74.80;;;;;;10823404;33;20303;-75
2023/06/24 08:38:30;;;;;;;3.10;1.67;;;26.80;74.80;;;;;;10823778;33;20342;-73
2023/06/24 08:44:32;;;;;;;3.58;2.17;;;27.00;72.50;;;;;;10819853;33;20020;-73
2023/06/24 08:50:44;;;;;;;3.35;1.90;;;27.10;72.30;;;;;;10828092;32;20020;-73
2023/06/24 08:56:46;;;;;;;3.92;2.10;;;27.30;71.30;;;;;;10829774;33;20338;-74
2023/06/24 09:02:49;;;;;;;4.07;2.33;;;27.40;70.30;;;;;;10828162;33;20028;-74
2023/06/24 09:08:56;;;;;;;3.67;1.92;;;27.60;69.90;;;;;;10825366;33;20023;-74
2023/06/24 09:14:58;;;;;;;3.80;2.20;;;27.60;69.00;;;;;;10812186;33;20041;-75
2023/06/24 09:21:02;;;;;;;3.33;1.70;;;27.70;69.40;;;;;;10814525;33;20373;-73
2023/06/24 09:27:04;;;;;;;3.87;2.08;;;27.60;69.30;;;;;;10828754;33;20029;-73
2023/06/24 09:33:10;;;;;;;2.50;1.42;;;27.60;68.40;;;;;;10826926;33;20028;-74
2023/06/24 09:39:12;;;;;;;3.03;1.92;;;27.90;67.30;;;;;;10827878;33;20055;-75
2023/06/24 09:45:14;;;;;;;5.87;3.33;;;28.30;65.80;;;;;;10814419;33;20028;-74
2023/06/24 09:51:17;;;;;;;2.22;1.55;;;28.50;66.40;;;;;;10828339;33;20028;-75
2023/06/24 09:57:29;;;;;;;2.47;1.50;;;28.60;65.70;;;;;;10816591;32;20028;-74
2023/06/24 10:03:35;;;;;;;3.35;1.33;;;28.40;66.10;;;;;;10810512;33;20062;-73
2023/06/24 10:09:38;;;;;;;4.03;2.53;;;28.40;64.90;;;;;;10828725;33;20020;-75
2023/06/24 10:15:47;;;;;;;5.18;1.50;;;28.70;64.00;;;;;;10827944;33;20424;-74
2023/06/24 10:22:24;;;;;;;2.08;1.40;;;29.00;62.50;;;;;;10791888;33;20047;-74
2023/06/24 10:28:26;;;;;;;3.05;1.48;;;29.20;62.40;;;;;;10790765;33;20032;-76
2023/06/24 10:34:32;;;;;;;4.78;1.33;;;29.40;62.00;;;;;;10788764;33;20024;-74
2023/06/24 10:40:39;;;;;;;2.65;1.50;;;29.70;61.20;;;;;;10791464;33;20016;-74
2023/06/24 10:46:41;;;;;;;7.60;2.95;;;29.80;60.70;;;;;;10787410;33;20047;-72
2023/06/24 10:52:48;;;;;;;2.33;1.33;;;30.00;59.90;;;;;;10777907;32;20419;-74
2023/06/24 10:58:56;;;;;;;3.00;1.63;;;30.10;60.50;;;;;;10787463;33;20063;-73
2023/06/24 11:05:02;;;;;;;4.35;1.60;;;30.30;58.40;;;;;;10790988;33;20013;-76
2023/06/24 11:11:06;;;;;;;2.50;1.50;;;30.40;62.10;;;;;;10777282;33;20403;-78
2023/06/24 11:17:09;;;;;;;2.85;1.58;;;30.50;61.00;;;;;;10785367;33;20017;-75
2023/06/24 11:23:11;;;;;;;1.30;1.08;;;30.70;59.70;;;;;;10789691;33;20043;-74
2023/06/24 11:29:13;;;;;;;2.33;1.50;;;31.00;58.80;;;;;;10776498;33;20020;-74
2023/06/24 11:35:16;;;;;;;3.25;1.75;;;31.10;57.20;;;;;;10789981;33;20013;-76
2023/06/24 11:41:23;;;;;;;3.78;2.30;;;31.30;56.80;;;;;;10777262;33;20016;-74
2023/06/24 11:47:25;;;;;;;6.97;2.12;;;31.30;58.50;;;;;;10773166;33;20024;-77
2023/06/24 11:53:42;;;;;;;7.57;1.70;;;31.40;59.40;;;;;;10785583;33;20012;-75
2023/06/24 11:59:44;;;;;;;2.87;1.30;;;31.50;58.90;;;;;;10776746;33;20028;-76
2023/06/24 12:05:47;;;;;;;2.37;1.35;;;31.50;56.90;;;;;;10789224;33;20043;-74
2023/06/24 12:11:50;;;;;;;2.67;1.42;;;31.80;55.80;;;;;;10773476;33;20063;-74
2023/06/24 12:17:52;;;;;;;4.35;2.10;;;32.00;54.40;;;;;;10788837;33;20024;-73
2023/06/24 12:23:54;;;;;;;2.92;1.52;;;32.10;53.90;;;;;;10790395;33;20059;-76
2023/06/24 12:29:56;;;;;;;1.52;1.08;;;32.10;52.50;;;;;;10944345;32;20018;-74
2023/06/24 12:35:59;;;;;;;4.57;1.08;;;32.10;52.10;;;;;;10983661;32;20015;-76
2023/06/24 12:42:15;;;;;;;1.15;0.43;;;32.20;53.30;;;;;;10987233;32;20050;-74
2023/06/24 12:48:23;;;;;;;1.50;0.80;;;32.20;51.80;;;;;;10972671;32;20404;-77
2023/06/24 12:54:25;;;;;;;1.62;0.82;;;32.30;51.10;;;;;;10986678;32;20010;-75
2023/06/24 13:00:27;;;;;;;3.25;1.00;;;32.40;51.40;;;;;;10970037;32;20088;-73
2023/06/24 13:06:29;;;;;;;1.37;0.93;;;32.30;50.70;;;;;;10986996;32;20061;-76
2023/06/24 13:12:35;;;;;;;1.92;1.17;;;32.30;54.30;;;;;;10986680;32;20018;-76
2023/06/24 13:18:40;;;;;;;2.72;1.27;;;32.30;52.80;;;;;;10972613;32;20023;-72
2023/06/24 13:24:42;;;;;;;4.10;1.08;;;32.20;51.50;;;;;;10985928;32;20011;-74
2023/06/24 13:30:44;;;;;;;2.92;1.62;;;32.30;53.70;;;;;;10985171;32;20022;-77
2023/06/24 13:36:47;;;;;;;5.40;2.45;;;32.20;56.40;;;;;;10985062;32;20019;-75
2023/06/24 13:42:49;;;;;;;3.05;1.42;;;32.00;59.40;;;;;;10985852;32;20393;-73
2023/06/24 13:48:51;;;;;;;3.55;2.08;;;31.90;57.70;;;;;;10984333;32;20431;-73
2023/06/24 13:54:53;;;;;;;5.50;2.35;;;31.90;55.00;;;;;;10983737;32;20353;-73
2023/06/24 14:00:55;;;;;;;2.87;1.65;;;32.00;56.00;;;;;;10982893;32;20053;-72
2023/06/24 14:06:57;;;;;;;3.20;1.60;;;32.00;54.40;;;;;;10983399;32;20022;-72
2023/06/24 14:12:59;;;;;;;5.55;1.90;;;32.10;53.20;;;;;;10981598;32;20324;-73
2023/06/24 14:19:01;;;;;;;1.80;1.10;;;32.10;52.60;;;;;;10978868;32;20037;-73
2023/06/24 14:25:04;;;;;;;3.05;1.58;;;32.00;52.00;;;;;;10982660;32;20037;-72
2023/06/24 14:31:06;;;;;;;3.97;1.12;;;32.00;51.90;;;;;;10885380;32;20067;-72
2023/06/24 14:37:08;;;;;;;3.65;1.58;;;32.10;51.50;;;;;;10753865;33;20025;-73
2023/06/24 14:43:10;;;;;;;2.33;1.27;;;32.30;51.10;;;;;;10753389;33;20053;-73
2023/06/24 14:49:13;;;;;;;2.20;1.08;;;32.10;51.20;;;;;;10753646;33;20025;-73
2023/06/24 14:55:15;;;;;;;2.33;1.27;;;31.90;51.60;;;;;;10751183;33;20051;-73
2023/06/24 15:01:17;;;;;;;2.67;1.60;;;31.60;52.00;;;;;;10740043;33;20029;-74
2023/06/24 15:07:20;;;;;;;1.75;1.05;;;31.60;52.00;;;;;;10753188;33;20055;-74
2023/06/24 15:13:25;;;;;;;2.85;1.42;;;31.40;52.30;;;;;;10752452;33;20025;-75
2023/06/24 15:19:30;;;;;;;2.95;1.45;;;31.30;53.10;;;;;;10750937;33;20326;-73
2023/06/24 15:25:55;;;;;;;1.72;1.08;;;31.20;53.60;;;;;;10652691;33;22247649;-73
2023/06/24 15:31:58;;;;;;;3.00;1.55;;;31.30;53.20;;;;;;10813238;32;20537;-73
2023/06/24 15:38:02;;;;;;;1.55;1.33;;;31.50;53.30;;;;;;10827114;32;20056;-73
2023/06/24 15:44:07;;;;;;;3.40;1.12;;;31.50;54.80;;;;;;10827403;32;20046;-72
2023/06/24 15:50:10;;;;;;;3.40;1.30;;;31.60;54.20;;;;;;10813655;32;20023;-72
2023/06/24 15:56:12;;;;;;;7.32;1.37;;;31.60;55.30;;;;;;10735691;32;20029;-76
2023/06/24 16:02:14;;;;;;;7.22;1.75;;;31.40;58.60;;;;;;10715000;33;20017;-73
2023/06/24 16:08:17;;;;;;;2.85;1.25;;;31.30;58.90;;;;;;10711578;33;20332;-73
2023/06/24 16:14:19;;;;;;;3.40;1.10;;;31.30;60.10;;;;;;10713652;33;20324;-75
2023/06/24 16:20:23;;;;;;;3.33;1.75;;;31.30;59.40;;;;;;10712400;33;20029;-74
2023/06/24 16:26:25;;;;;;;1.48;1.20;;;31.30;58.50;;;;;;10726761;32;20025;-77
2023/06/24 16:32:27;;;;;;;2.05;1.15;;;31.30;59.00;;;;;;10730844;32;20052;-75
2023/06/24 16:38:29;;;;;;;2.08;1.00;;;31.30;58.90;;;;;;10714208;33;20435;-73
2023/06/24 16:44:36;;;;;;;2.00;1.10;;;31.30;59.30;;;;;;10714275;33;20048;-74
2023/06/24 16:50:38;;;;;;;4.20;1.02;;;31.30;57.00;;;;;;10763533;32;20297;-75
2023/06/24 16:56:40;;;;;;;1.42;0.82;;;31.30;58.10;;;;;;10713757;33;20021;-76
2023/06/24 17:02:48;;;;;;;2.03;0.80;;;31.40;57.10;;;;;;10712186;33;20025;-73
2023/06/24 17:08:53;;;;;;;1.87;0.95;;;31.30;59.40;;;;;;10697994;32;20355;-73
2023/06/24 17:14:55;;;;;;;1.00;0.82;;;31.30;60.20;;;;;;10715216;33;20033;-78
2023/06/24 17:20:57;;;;;;;2.28;1.08;;;31.30;59.40;;;;;;10702578;33;20033;-75
2023/06/24 17:27:00;;;;;;;7.70;1.30;;;31.30;59.50;;;;;;10716392;33;20044;-76
2023/06/24 17:33:02;;;;;;;2.33;1.12;;;31.30;58.80;;;;;;10718076;33;20047;-74
2023/06/24 17:39:04;;;;;;;1.12;0.60;;;31.20;60.10;;;;;;10714686;33;20036;-75
2023/06/24 17:45:07;;;;;;;2.05;0.85;;;31.10;59.70;;;;;;10724450;32;20033;-74
2023/06/24 17:51:09;;;;;;;1.02;0.68;;;31.20;59.70;;;;;;10722474;32;20028;-75
2023/06/24 17:57:11;;;;;;;0.93;0.62;;;31.30;59.80;;;;;;10714800;33;20468;-74
2023/06/24 18:03:13;;;;;;;1.58;0.50;;;30.90;60.80;;;;;;10715445;32;20420;-78
2023/06/24 18:09:16;;;;;;;0.85;0.40;;;30.60;62.60;;;;;;10715253;33;20025;-76
2023/06/24 18:15:18;;;;;;;2.78;0.80;;;30.30;62.70;;;;;;10714940;33;20040;-75
2023/06/24 18:21:21;;;;;;;0.90;0.40;;;30.10;63.40;;;;;;10751626;32;20029;-73
2023/06/24 18:27:23;;;;;;;1.58;0.47;;;30.00;64.40;;;;;;10714296;33;20017;-73
2023/06/24 18:33:25;;;;;;;1.25;0.85;;;29.80;64.70;;;;;;10716382;33;20032;-73
2023/06/24 18:39:27;;;;;;;1.60;0.70;;;29.80;64.80;;;;;;10711582;33;20079;-74
2023/06/24 18:45:29;;;;;;;0.62;0.30;;;29.70;65.80;;;;;;10711929;33;20033;-74
2023/06/24 18:51:31;;;;;;;2.15;1.52;;;29.50;66.50;;;;;;10715387;33;20065;-73
2023/06/24 18:57:33;;;;;;;1.10;0.70;;;29.40;67.30;;;;;;10724801;32;20056;-74
2023/06/24 19:03:54;;;;;;;3.75;0.65;;;29.30;67.00;;;;;;10715026;33;20029;-73
2023/06/24 19:09:57;;;;;;;6.87;0.73;;;29.30;67.00;;;;;;10702363;33;20395;-74
2023/06/24 19:16:04;;;;;;;0.25;0.25;;;29.10;68.30;;;;;;10749498;32;20059;-73
2023/06/24 19:22:07;;;;;;;2.40;0.65;;;29.10;68.90;;;;;;10790305;32;20073;-73
2023/06/24 19:28:09;;;;;;;0.55;0.40;;;29.10;69.60;;;;;;10714303;33;20339;-73
2023/06/24 19:34:11;;;;;;;0.22;0.20;;;29.10;70.30;;;;;;10762977;32;20119;-73
2023/06/24 19:40:13;;;;;;;1.80;0.47;;;29.10;70.30;;;;;;10713122;33;20051;-73
2023/06/24 19:46:18;;;;;;;1.25;0.62;;;29.10;70.30;;;;;;10731232;32;20025;-73
2023/06/24 19:52:35;;;;;;;7.03;0.50;;;29.10;70.30;;;;;;10708712;33;20059;-73
2023/06/24 19:58:38;;;;;;;0.62;0.30;;;29.10;70.80;;;;;;10738602;32;20316;-73
2023/06/24 20:04:40;;;;;;;2.35;0.90;;;29.00;71.20;;;;;;10713174;32;20025;-73
2023/06/24 20:10:43;;;;;;;0.73;0.50;;;29.00;71.10;;;;;;10707787;33;20060;-73
2023/06/24 20:16:45;;;;;;;1.62;0.73;;;28.90;70.50;;;;;;10709947;32;20114;-76
2023/06/24 20:22:47;;;;;;;3.05;0.70;;;28.80;70.50;;;;;;10706459;32;20371;-73
2023/06/24 20:28:49;;;;;;;2.40;0.85;;;28.70;70.70;;;;;;10721238;33;20104;-75
2023/06/24 20:34:51;;;;;;;1.08;0.65;;;28.60;70.40;;;;;;10711325;32;20071;-76
2023/06/24 20:40:56;;;;;;;0.52;0.37;;;28.50;70.20;;;;;;10718114;32;20049;-75
2023/06/24 20:46:58;;;;;;;0.55;0.50;;;28.40;70.10;;;;;;10715529;33;20032;-73
2023/06/24 20:53:00;;;;;;;3.00;0.60;;;28.40;70.40;;;;;;10718882;33;20321;-73
2023/06/24 20:59:02;;;;;;;1.60;0.57;;;28.40;70.60;;;;;;10716701;33;20060;-73
2023/06/24 21:05:24;;;;;;;1.23;0.30;;;28.30;71.50;;;;;;10705020;33;20437;-73
2023/06/24 21:11:26;;;;;;;1.15;0.30;;;28.30;71.80;;;;;;10713223;33;20040;-73
2023/06/24 21:17:29;;;;;;;0.37;0.25;;;28.30;72.10;;;;;;10714021;33;20071;-72
2023/06/24 21:23:44;;;;;;;8.98;0.82;;;28.30;72.00;;;;;;10715510;33;20088;-73
2023/06/24 21:29:47;;;;;;;6.00;1.08;;;28.30;71.80;;;;;;10712423;33;20476;-74
2023/06/24 21:35:49;;;;;;;0.73;0.50;;;28.30;71.80;;;;;;10715888;33;20020;-74
2023/06/24 21:41:52;;;;;;;5.95;1.42;;;28.20;71.60;;;;;;10735285;32;20072;-75
2023/06/24 21:47:54;;;;;;;0.68;0.30;;;28.10;71.80;;;;;;10727069;32;20343;-74
2023/06/24 21:53:56;;;;;;;0.75;0.35;;;28.10;72.20;;;;;;10717962;32;20067;-74
2023/06/24 21:59:58;;;;;;;1.60;0.68;;;28.10;72.70;;;;;;10699559;33;20033;-74
2023/06/24 22:06:01;;;;;;;0.15;0.10;;;28.20;73.20;;;;;;10716268;33;20441;-73
2023/06/24 22:12:06;;;;;;;0.20;0.20;;;28.20;73.40;;;;;;10715059;33;20060;-73
2023/06/24 22:18:08;;;;;;;0.35;0.10;;;28.20;73.50;;;;;;10720353;32;20029;-73
2023/06/24 22:24:10;;;;;;;0.20;0.20;;;28.10;73.70;;;;;;10715529;32;20033;-73
2023/06/24 22:30:12;;;;;;;0.40;0.40;;;28.10;74.00;;;;;;10717744;33;20068;-73
2023/06/24 22:36:14;;;;;;;3.87;0.55;;;28.00;74.10;;;;;;10715437;33;20426;-73
2023/06/24 22:42:16;;;;;;;0.85;0.28;;;27.90;74.60;;;;;;10704165;33;20089;-73
2023/06/24 22:48:18;;;;;;;0.90;0.50;;;27.80;74.80;;;;;;10762478;32;20036;-73
2023/06/24 22:54:20;;;;;;;1.05;0.50;;;27.80;74.80;;;;;;10766048;32;20025;-73
2023/06/24 23:00:22;;;;;;;1.00;0.45;;;27.80;74.90;;;;;;10716666;33;20083;-73
2023/06/24 23:06:25;;;;;;;1.98;0.50;;;27.80;75.00;;;;;;10764080;32;20017;-73
2023/06/24 23:12:28;;;;;;;0.37;0.30;;;27.70;75.00;;;;;;10765930;32;20020;-73
2023/06/24 23:18:30;;;;;;;1.45;0.90;;;27.60;75.30;;;;;;10716458;33;20029;-73
2023/06/24 23:24:32;;;;;;;1.25;0.37;;;27.50;75.40;;;;;;10716565;33;20052;-72
2023/06/24 23:30:35;;;;;;;1.05;0.57;;;27.30;75.50;;;;;;10778109;27;20025;-73
2023/06/24 23:36:37;;;;;;;1.80;1.02;;;27.30;75.60;;;;;;10788791;33;20020;-73
2023/06/24 23:42:42;;;;;;;1.45;0.68;;;27.30;75.50;;;;;;10785017;33;20024;-73
2023/06/24 23:48:44;;;;;;;2.45;1.10;;;27.40;75.60;;;;;;10775012;33;20051;-73
2023/06/24 23:54:46;;;;;;;4.18;1.30;;;27.30;75.60;;;;;;10788320;33;20020;-73
